createdAt,value
2023-02-03T00:01:11.315Z,1023.06
2023-02-03T00:05:08.220Z,1022.92
2023-02-03T00:10:08.223Z,1022.9
2023-02-03T00:15:08.163Z,1022.93
2023-02-03T00:20:08.204Z,1022.79
2023-02-03T00:25:08.135Z,1022.92
2023-02-03T00:30:08.049Z,1023.01
2023-02-03T00:35:07.983Z,1023.09
2023-02-03T00:40:07.909Z,1023.14
2023-02-03T00:45:08.829Z,1023.25
2023-02-03T00:50:08.742Z,1023.37
2023-02-03T00:55:08.695Z,1023.39
2023-02-03T01:00:08.602Z,1023.39
2023-02-03T01:05:08.583Z,1023.39
2023-02-03T01:10:08.585Z,1023.37
2023-02-03T01:15:09.271Z,1023.43
2023-02-03T01:20:08.216Z,1023.43
2023-02-03T01:25:08.181Z,1023.53
2023-02-03T01:30:08.200Z,1023.48
2023-02-03T01:35:08.154Z,1023.41
2023-02-03T01:40:08.070Z,1023.28
2023-02-03T01:45:08.024Z,1023.32
2023-02-03T01:50:07.984Z,1023.21
2023-02-03T01:55:07.909Z,1023.24
2023-02-03T02:00:08.888Z,1022.77
2023-02-03T02:05:08.859Z,1022.72
2023-02-03T02:10:08.796Z,1022.69
2023-02-03T02:15:08.732Z,1022.87
2023-02-03T02:20:20.784Z,1022.72
2023-02-03T02:25:08.911Z,1022.77
2023-02-03T02:30:08.849Z,1022.53
2023-02-03T02:35:08.775Z,1022.53
2023-02-03T02:40:08.725Z,1022.32
2023-02-03T02:45:08.702Z,1022.46
2023-02-03T02:50:13.582Z,1022.69
2023-02-03T02:55:15.652Z,1022.87
2023-02-03T03:00:08.992Z,1022.79
2023-02-03T03:05:08.050Z,1022.84
2023-02-03T03:10:08.964Z,1022.63
2023-02-03T03:15:10.673Z,1022.6
2023-02-03T03:20:08.628Z,1022.55
2023-02-03T03:25:08.537Z,1022.39
2023-02-03T03:30:08.477Z,1022.5
2023-02-03T03:35:08.414Z,1022.58
2023-02-03T03:40:08.358Z,1022.7
2023-02-03T03:45:08.331Z,1022.47
2023-02-03T03:50:08.303Z,1022.55
2023-02-03T03:55:08.318Z,1022.67
2023-02-03T04:00:08.236Z,1022.57
2023-02-03T04:05:08.182Z,1022.67
2023-02-03T04:10:08.114Z,1022.77
2023-02-03T04:15:08.078Z,1022.84
2023-02-03T04:20:08.036Z,1022.79
2023-02-03T04:25:07.978Z,1022.7
2023-02-03T04:30:07.914Z,1022.53
2023-02-03T04:35:08.879Z,1022.6
2023-02-03T04:40:08.864Z,1022.52
2023-02-03T04:45:08.779Z,1022.5
2023-02-03T04:50:08.737Z,1022.3
2023-02-03T04:55:08.714Z,1022.3
2023-02-03T05:00:08.633Z,1022.37
2023-02-03T05:05:03.572Z,1022.27
2023-02-03T05:10:03.251Z,1022.34
2023-02-03T05:15:02.626Z,1022.41
2023-02-03T05:20:03.308Z,1022.25
2023-02-03T05:25:02.691Z,1022.26
2023-02-03T05:30:03.004Z,1022.31
2023-02-03T05:35:04.024Z,1022.39
2023-02-03T05:40:04.117Z,1022.24
2023-02-03T05:45:03.305Z,1022.28
2023-02-03T05:50:02.683Z,1022.32
2023-02-03T05:55:03.820Z,1022.39
2023-02-03T06:00:03.376Z,1022.46
2023-02-03T06:05:04.757Z,1022.43
2023-02-03T06:10:03.744Z,1022.37
2023-02-03T06:15:03.063Z,1022.37
2023-02-03T06:20:04.138Z,1022.39
2023-02-03T06:25:03.262Z,1022.31
2023-02-03T06:30:07.479Z,1022.37
2023-02-03T06:35:03.506Z,1022.37
2023-02-03T06:40:04.795Z,1022.29
2023-02-03T06:45:03.824Z,1022.35
2023-02-03T06:50:03.260Z,1022.34
2023-02-03T06:55:12.415Z,1022.46
2023-02-03T07:00:03.221Z,1022.55
2023-02-03T07:05:02.807Z,1022.73
2023-02-03T07:10:12.558Z,1022.63
2023-02-03T07:15:03.350Z,1022.74
2023-02-03T07:20:02.586Z,1022.73
2023-02-03T07:25:03.752Z,1022.83
2023-02-03T07:30:03.117Z,1022.76
2023-02-03T07:35:04.503Z,1022.83
2023-02-03T07:40:03.115Z,1022.76
2023-02-03T07:45:02.230Z,1022.75
2023-02-03T07:50:03.528Z,1022.67
2023-02-03T07:55:03.880Z,1022.75
2023-02-03T08:00:03.497Z,1022.71
2023-02-03T08:05:02.878Z,1022.8
2023-02-03T08:10:03.379Z,1022.97
2023-02-03T08:15:14.940Z,1023.12
2023-02-03T08:20:02.618Z,1022.95
2023-02-03T08:25:04.519Z,1022.99
2023-02-03T08:30:04.107Z,1023.21
2023-02-03T08:35:02.580Z,1023.21
2023-02-03T08:40:02.964Z,1023.09
2023-02-03T08:45:05.253Z,1023.02
2023-02-03T08:50:02.765Z,1022.84
2023-02-03T08:55:06.162Z,1022.89
2023-02-03T09:00:03.444Z,1023.15
2023-02-03T09:05:04.068Z,1023.09
2023-02-03T09:10:02.475Z,1023.1
2023-02-03T09:15:06.355Z,1023.16
2023-02-03T09:20:06.624Z,1023.13
2023-02-03T09:25:03.214Z,1023.11
2023-02-03T09:30:02.642Z,1023.39
2023-02-03T09:35:03.175Z,1023.39
2023-02-03T09:40:06.050Z,1023.22
2023-02-03T09:45:02.865Z,1023.34
2023-02-03T09:50:05.078Z,1023.12
2023-02-03T09:55:02.636Z,1023.19
2023-02-03T10:00:14.977Z,1023.28
2023-02-03T10:05:03.552Z,1023.42
2023-02-03T10:10:03.402Z,1023.38
2023-02-03T10:15:07.964Z,1023.39
2023-02-03T10:20:02.267Z,1023.36
2023-02-03T10:25:03.119Z,1023.4
2023-02-03T10:30:02.878Z,1023.47
2023-02-03T10:35:04.845Z,1023.58
2023-02-03T10:40:04.258Z,1023.46
2023-02-03T10:45:03.121Z,1023.51
2023-02-03T10:50:02.617Z,1023.6
2023-02-03T10:55:03.292Z,1023.69
2023-02-03T11:00:03.245Z,1023.64
2023-02-03T11:05:02.827Z,1023.75
2023-02-03T11:10:03.735Z,1023.65
2023-02-03T11:15:03.363Z,1023.64
2023-02-03T11:20:03.400Z,1023.69
2023-02-03T11:25:02.708Z,1023.76
2023-02-03T11:30:08.512Z,1023.82
2023-02-03T11:35:08.381Z,1023.71
2023-02-03T11:40:10.199Z,1023.68
2023-02-03T11:45:14.832Z,1023.76
2023-02-03T11:50:04.011Z,1023.51
2023-02-03T11:55:03.152Z,1023.65
2023-02-03T12:00:03.416Z,1023.76
2023-02-03T12:05:02.865Z,1023.78
2023-02-03T12:10:03.135Z,1023.84
2023-02-03T12:15:20.264Z,1023.95
2023-02-03T12:20:03.356Z,1024.03
2023-02-03T12:25:04.448Z,1023.95
2023-02-03T12:30:02.815Z,1023.99
2023-02-03T12:35:03.253Z,1024.09
2023-02-03T12:40:02.650Z,1023.98
2023-02-03T12:45:02.680Z,1024.03
2023-02-03T12:50:13.584Z,1023.92
2023-02-03T12:55:05.837Z,1023.97
2023-02-03T13:00:03.385Z,1024.15
2023-02-03T13:05:05.680Z,1024.31
2023-02-03T13:10:03.056Z,1024.42
2023-02-03T13:15:03.339Z,1024.49
2023-02-03T13:20:12.247Z,1024.35
2023-02-03T13:25:09.761Z,1024.36
2023-02-03T13:30:03.607Z,1024.38
2023-02-03T13:35:05.271Z,1024.35
2023-02-03T13:40:02.686Z,1024.5
2023-02-03T13:45:02.931Z,1024.52
2023-02-03T13:50:03.025Z,1024.51
2023-02-03T13:55:02.999Z,1024.54
2023-02-03T14:00:02.574Z,1024.54
2023-02-03T14:05:03.732Z,1024.57
2023-02-03T14:10:13.469Z,1024.67
2023-02-03T14:15:05.894Z,1024.85
2023-02-03T14:20:03.249Z,1024.86
2023-02-03T14:25:03.295Z,1025.05
2023-02-03T14:30:02.546Z,1024.97
2023-02-03T14:35:03.156Z,1024.97
2023-02-03T14:40:05.156Z,1025.02
2023-02-03T14:45:03.013Z,1025.09
2023-02-03T14:50:02.835Z,1025.19
2023-02-03T14:55:03.371Z,1025.1
2023-02-03T15:00:02.827Z,1025.25
2023-02-03T15:05:03.505Z,1025.25
2023-02-03T15:10:03.372Z,1025.14
2023-02-03T15:15:02.594Z,1025.15
2023-02-03T15:20:03.843Z,1025.24
2023-02-03T15:25:03.748Z,1025.34
2023-02-03T15:30:03.768Z,1025.41
2023-02-03T15:35:03.214Z,1025.51
2023-02-03T15:40:02.529Z,1025.58
2023-02-03T15:45:07.908Z,1025.51
2023-02-03T15:50:03.625Z,1025.56
2023-02-03T15:55:02.856Z,1025.65
2023-02-03T16:00:03.128Z,1025.68
2023-02-03T16:05:03.764Z,1025.74
2023-02-03T16:10:03.835Z,1025.81
2023-02-03T16:15:03.843Z,1025.97
2023-02-03T16:20:11.393Z,1026.05
2023-02-03T16:25:18.814Z,1026.02
2023-02-03T16:30:05.448Z,1026.11
2023-02-03T16:35:03.772Z,1026.12
2023-02-03T16:40:03.614Z,1026.24
2023-02-03T16:45:03.267Z,1026.18
2023-02-03T16:50:02.759Z,1026.23
2023-02-03T16:55:03.776Z,1026.38
2023-02-03T17:00:03.080Z,1026.36
2023-02-03T17:05:03.468Z,1026.47
2023-02-03T17:10:04.119Z,1026.55
2023-02-03T17:15:03.632Z,1026.44
2023-02-03T17:20:08.841Z,1026.57
2023-02-03T17:25:03.436Z,1026.58
2023-02-03T17:30:03.407Z,1026.58
2023-02-03T17:35:05.790Z,1026.71
2023-02-03T17:55:05.156Z,1027.11
2023-02-03T18:00:03.137Z,1027.27
2023-02-03T18:05:02.280Z,1027.37
2023-02-03T18:10:02.700Z,1027.36
2023-02-03T18:15:03.861Z,1027.49
2023-02-03T18:20:04.662Z,1027.61
2023-02-03T18:25:02.960Z,1027.52
2023-02-03T18:30:02.686Z,1027.57
2023-02-03T18:35:03.127Z,1027.52
2023-02-03T18:40:02.550Z,1027.63
2023-02-03T18:45:03.339Z,1027.63
2023-02-03T18:50:04.997Z,1027.7
2023-02-03T18:55:05.560Z,1027.66
2023-02-03T19:00:03.386Z,1027.67
2023-02-03T19:05:06.376Z,1027.93
2023-02-03T19:10:04.171Z,1028.03
2023-02-03T19:15:02.647Z,1028.06
2023-02-03T19:20:05.788Z,1028.09
2023-02-03T19:25:06.475Z,1028.18
2023-02-03T19:30:03.754Z,1028.31
2023-02-03T19:35:03.763Z,1028.29
2023-02-03T19:40:06.435Z,1028.39
2023-02-03T19:45:03.357Z,1028.45
2023-02-03T19:50:09.998Z,1028.67
2023-02-03T19:55:02.209Z,1028.64
2023-02-03T20:00:02.629Z,1028.58
2023-02-03T20:05:04.060Z,1028.65
2023-02-03T20:10:02.664Z,1028.68
2023-02-03T20:15:03.033Z,1028.76
2023-02-03T20:20:02.915Z,1028.83
2023-02-03T20:25:03.528Z,1028.9
2023-02-03T20:30:02.970Z,1028.94
2023-02-03T20:35:02.405Z,1028.93
2023-02-03T20:40:03.121Z,1028.97
2023-02-03T20:45:02.488Z,1028.91
2023-02-03T20:50:03.112Z,1028.96
2023-02-03T20:55:03.724Z,1028.98
2023-02-03T21:00:04.823Z,1029.12
2023-02-03T21:05:03.413Z,1029.19
2023-02-03T21:10:07.525Z,1029.16
2023-02-03T21:15:03.165Z,1029.28
2023-02-03T21:20:02.427Z,1029.34
2023-02-03T21:25:03.949Z,1029.32
2023-02-03T21:30:02.489Z,1029.28
2023-02-03T21:35:02.663Z,1029.42
2023-02-03T21:40:03.412Z,1029.46
2023-02-03T21:45:02.680Z,1029.42
2023-02-03T21:50:03.433Z,1029.52
2023-02-03T21:55:03.423Z,1029.51
2023-02-03T22:00:03.377Z,1029.52
2023-02-03T22:05:03.156Z,1029.62
2023-02-03T22:10:04.062Z,1029.69
2023-02-03T22:15:03.115Z,1029.97
2023-02-03T22:20:02.879Z,1029.94
2023-02-03T22:25:03.273Z,1029.97
2023-02-03T22:30:03.404Z,1029.99
2023-02-03T22:35:02.980Z,1029.97
2023-02-03T22:40:02.714Z,1030.12
2023-02-03T22:45:03.655Z,1029.95
2023-02-03T22:50:03.356Z,1030.26
2023-02-03T22:55:03.240Z,1030.29
2023-02-03T23:00:02.768Z,1030.16
2023-02-03T23:05:22.624Z,1030.22
2023-02-03T23:10:08.571Z,1030.25
2023-02-03T23:15:08.714Z,1030.2
2023-02-03T23:20:08.666Z,1030.29
2023-02-03T23:25:08.589Z,1030.28
2023-02-03T23:30:08.603Z,1030.44
2023-02-03T23:35:08.596Z,1030.53
2023-02-03T23:40:08.651Z,1030.53
2023-02-03T23:45:08.589Z,1030.67
2023-02-03T23:50:08.529Z,1030.78
2023-02-03T23:55:08.492Z,1030.88
